createdAt,value
2023-06-18T00:00:41.982Z,100147.06
2023-06-18T00:03:08.651Z,100147.31
2023-06-18T00:05:35.549Z,100146.97
2023-06-18T00:08:02.334Z,100152.59
2023-06-18T00:10:29.017Z,100153.13
2023-06-18T00:12:55.560Z,100153.81
2023-06-18T00:15:22.340Z,100155.63
2023-06-18T00:17:49.005Z,100158.25
2023-06-18T00:20:16.008Z,100142.56
2023-06-18T00:22:43.066Z,100146.66
2023-06-18T00:25:09.757Z,100144.09
2023-06-18T00:27:36.516Z,100147.06
2023-06-18T00:30:05.170Z,100151.75
2023-06-18T00:32:32.375Z,100146.53
2023-06-18T00:35:01.797Z,100141.25
2023-06-18T00:37:29.183Z,100145.53
2023-06-18T00:39:56.370Z,100143.59
2023-06-18T00:42:23.128Z,100140.38
2023-06-18T00:44:49.671Z,100136.97
2023-06-18T00:47:18.733Z,100137.91
2023-06-18T00:49:46.538Z,100137.34
2023-06-18T00:52:14.092Z,100132.09
2023-06-18T00:54:47.290Z,100138.19
2023-06-18T00:57:16.353Z,100134.63
2023-06-18T00:59:48.284Z,100129.56
2023-06-18T01:02:16.446Z,100131.16
2023-06-18T01:04:44.544Z,100122.97
2023-06-18T01:07:14.808Z,100123.41
2023-06-18T01:09:45.615Z,100124.97
2023-06-18T01:12:12.631Z,100125.31
2023-06-18T01:14:40.316Z,100120.44
2023-06-18T01:17:08.177Z,100118.34
2023-06-18T01:19:39.307Z,100118.84
2023-06-18T01:22:17.203Z,100119.53
2023-06-18T01:24:51.722Z,100115.31
2023-06-18T01:27:22.558Z,100122.28
2023-06-18T01:29:51.675Z,100111.88
2023-06-18T01:32:20.789Z,100116.84
2023-06-18T01:34:48.966Z,100102.41
2023-06-18T01:37:41.902Z,100103.81
2023-06-18T01:40:37.932Z,100099.59
2023-06-18T01:43:18.065Z,100095.47
2023-06-18T01:46:11.695Z,100098.53
2023-06-18T01:49:04.602Z,100089.63
2023-06-18T01:51:53.325Z,100096.88
2023-06-18T01:54:41.675Z,100089.38
2023-06-18T01:57:29.369Z,100104.13
2023-06-18T02:00:16.192Z,100096.97
2023-06-18T02:02:44.194Z,100103.81
2023-06-18T02:05:11.336Z,100103.34
2023-06-18T02:07:37.825Z,100093.72
2023-06-18T02:10:04.937Z,100091.41
2023-06-18T02:12:31.500Z,100095.09
2023-06-18T02:14:58.891Z,100101.75
2023-06-18T02:17:27.314Z,100099.13
2023-06-18T02:19:54.154Z,100098.91
2023-06-18T02:22:20.981Z,100107.03
2023-06-18T02:24:47.698Z,100106.06
2023-06-18T02:27:14.588Z,100106.63
2023-06-18T02:29:42.806Z,100109.03
2023-06-18T02:32:11.631Z,100110.19
2023-06-18T02:34:38.821Z,100122.00
2023-06-18T02:37:07.969Z,100118.41
2023-06-18T02:39:36.986Z,100122.75
2023-06-18T02:42:04.125Z,100122.22
2023-06-18T02:44:32.657Z,100124.44
2023-06-18T02:46:59.329Z,100121.72
2023-06-18T02:49:26.123Z,100121.91
2023-06-18T02:51:52.908Z,100125.78
2023-06-18T02:54:19.512Z,100131.06
2023-06-18T02:56:46.248Z,100126.75
2023-06-18T02:59:12.832Z,100128.75
2023-06-18T03:01:40.606Z,100129.22
2023-06-18T03:04:07.649Z,100128.56
2023-06-18T03:06:35.017Z,100126.78
2023-06-18T03:09:03.377Z,100131.94
2023-06-18T03:11:30.056Z,100139.53
2023-06-18T03:13:58.178Z,100138.56
2023-06-18T03:16:24.968Z,100133.59
2023-06-18T03:18:51.755Z,100131.81
2023-06-18T03:21:19.552Z,100135.66
2023-06-18T03:23:47.200Z,100126.81
2023-06-18T03:26:13.871Z,100127.03
2023-06-18T03:28:40.787Z,100133.53
2023-06-18T03:31:08.283Z,100129.75
2023-06-18T03:33:34.983Z,100126.38
2023-06-18T03:36:04.154Z,100116.03
2023-06-18T03:38:33.835Z,100110.44
2023-06-18T03:41:03.828Z,100116.97
2023-06-18T03:43:31.098Z,100121.31
2023-06-18T03:45:59.378Z,100123.66
2023-06-18T03:48:26.211Z,100118.56
2023-06-18T03:50:53.121Z,100122.59
2023-06-18T03:53:19.618Z,100129.50
2023-06-18T03:55:47.885Z,100126.31
2023-06-18T03:58:19.009Z,100128.34
2023-06-18T04:00:47.399Z,100128.97
2023-06-18T04:03:14.520Z,100133.03
2023-06-18T04:05:41.171Z,100134.59
2023-06-18T04:08:08.412Z,100133.53
2023-06-18T04:10:35.312Z,100136.72
2023-06-18T04:13:03.201Z,100136.72
2023-06-18T04:15:30.098Z,100134.28
2023-06-18T04:17:57.781Z,100141.13
2023-06-18T04:20:24.898Z,100143.47
2023-06-18T04:22:51.705Z,100142.06
2023-06-18T04:25:21.143Z,100140.78
2023-06-18T04:27:49.641Z,100139.94
2023-06-18T04:30:16.512Z,100143.31
2023-06-18T04:32:43.312Z,100153.44
2023-06-18T04:35:10.570Z,100157.56
2023-06-18T04:37:37.755Z,100151.97
2023-06-18T04:40:06.698Z,100148.69
2023-06-18T04:42:34.243Z,100153.97
2023-06-18T04:45:00.873Z,100155.56
2023-06-18T04:47:27.755Z,100157.66
2023-06-18T04:49:54.728Z,100155.97
2023-06-18T04:52:21.342Z,100157.56
2023-06-18T04:54:49.191Z,100156.91
2023-06-18T04:57:17.320Z,100154.28
2023-06-18T04:59:43.940Z,100153.13
2023-06-18T05:02:11.187Z,100154.38
2023-06-18T05:04:37.839Z,100150.59
2023-06-18T05:07:04.646Z,100149.22
2023-06-18T05:09:33.650Z,100149.41
2023-06-18T05:12:00.434Z,100150.97
2023-06-18T05:14:28.589Z,100152.78
2023-06-18T05:16:55.524Z,100144.84
2023-06-18T05:19:22.091Z,100159.06
2023-06-18T05:21:48.837Z,100158.88
2023-06-18T05:24:16.061Z,100153.16
2023-06-18T05:26:43.694Z,100154.50
2023-06-18T05:29:10.371Z,100145.53
2023-06-18T05:31:37.368Z,100146.66
2023-06-18T05:34:08.047Z,100145.53
2023-06-18T05:36:34.590Z,100147.00
2023-06-18T05:39:01.538Z,100152.81
2023-06-18T05:41:30.051Z,100151.50
2023-06-18T05:43:57.824Z,100148.63
2023-06-18T05:46:24.357Z,100151.44
2023-06-18T05:48:51.157Z,100149.31
2023-06-18T05:51:19.443Z,100156.06
2023-06-18T05:53:46.432Z,100154.66
2023-06-18T05:56:14.709Z,100154.81
2023-06-18T05:58:41.808Z,100155.94
2023-06-18T06:01:08.406Z,100158.72
2023-06-18T06:03:36.652Z,100150.31
2023-06-18T06:06:03.813Z,100158.00
2023-06-18T06:08:32.087Z,100160.31
2023-06-18T06:11:01.232Z,100155.75
2023-06-18T06:13:28.132Z,100157.44
2023-06-18T06:15:58.843Z,100163.69
2023-06-18T06:18:25.559Z,100159.47
2023-06-18T06:20:52.080Z,100158.03
2023-06-18T06:23:18.768Z,100160.22
2023-06-18T06:25:45.646Z,100157.81
2023-06-18T06:28:12.689Z,100163.84
2023-06-18T06:30:39.558Z,100162.03
2023-06-18T06:33:07.641Z,100167.66
2023-06-18T06:35:34.663Z,100166.66
2023-06-18T06:38:01.276Z,100160.13
2023-06-18T06:40:28.195Z,100163.09
2023-06-18T06:42:55.297Z,100159.94
2023-06-18T06:45:31.216Z,100155.66
2023-06-18T06:48:04.484Z,100151.28
2023-06-18T06:50:54.003Z,100152.31
2023-06-18T06:53:24.399Z,100154.34
2023-06-18T06:55:51.622Z,100155.34
2023-06-18T06:58:21.285Z,100154.56
2023-06-18T07:00:48.012Z,100152.38
2023-06-18T07:03:14.897Z,100148.94
2023-06-18T07:05:41.770Z,100146.72
2023-06-18T07:08:08.565Z,100150.34
2023-06-18T07:10:36.008Z,100150.00
2023-06-18T07:13:02.627Z,100154.41
2023-06-18T07:15:29.373Z,100156.66
2023-06-18T07:17:56.022Z,100161.63
2023-06-18T07:20:23.098Z,100163.31
2023-06-18T07:22:49.824Z,100163.13
2023-06-18T07:25:16.737Z,100162.06
2023-06-18T07:27:43.264Z,100159.97
2023-06-18T07:30:10.652Z,100166.56
2023-06-18T07:32:37.278Z,100169.22
2023-06-18T07:35:04.165Z,100167.09
2023-06-18T07:37:30.850Z,100161.91
2023-06-18T07:39:57.637Z,100168.06
2023-06-18T07:42:24.605Z,100170.63
2023-06-18T07:44:52.845Z,100173.13
2023-06-18T07:47:19.942Z,100172.38
2023-06-18T07:49:46.514Z,100159.03
2023-06-18T07:52:13.222Z,100163.66
2023-06-18T07:54:39.889Z,100159.75
2023-06-18T07:57:06.708Z,100161.56
2023-06-18T07:59:33.236Z,100157.78
2023-06-18T08:02:00.202Z,100144.41
2023-06-18T08:04:26.884Z,100142.25
2023-06-18T08:06:53.643Z,100147.19
2023-06-18T08:09:20.161Z,100146.22
2023-06-18T08:11:46.817Z,100144.88
2023-06-18T08:14:13.343Z,100145.47
2023-06-18T08:16:40.480Z,100142.88
2023-06-18T08:19:07.303Z,100143.94
2023-06-18T08:21:33.895Z,100137.44
2023-06-18T08:24:00.605Z,100140.63
2023-06-18T08:26:27.213Z,100140.75
2023-06-18T08:28:53.990Z,100147.84
2023-06-18T08:31:21.755Z,100135.44
2023-06-18T08:33:50.043Z,100136.41
2023-06-18T08:36:22.118Z,100139.69
2023-06-18T08:38:49.261Z,100141.75
2023-06-18T08:41:16.176Z,100138.47
2023-06-18T08:43:42.933Z,100128.56
2023-06-18T08:46:11.607Z,100129.78
2023-06-18T08:48:44.231Z,100124.44
2023-06-18T08:51:12.607Z,100132.22
2023-06-18T08:53:42.171Z,100114.16
2023-06-18T08:56:10.030Z,100119.59
2023-06-18T08:58:51.027Z,100114.34
2023-06-18T09:01:17.983Z,100103.53
2023-06-18T09:03:45.986Z,100112.19
2023-06-18T09:06:13.764Z,100108.78
2023-06-18T09:08:40.665Z,100111.09
2023-06-18T09:11:08.075Z,100114.88
2023-06-18T09:13:41.017Z,100112.63
2023-06-18T09:16:08.516Z,100109.06
2023-06-18T09:18:35.131Z,100108.38
2023-06-18T09:21:04.366Z,100112.94
2023-06-18T09:23:31.849Z,100116.03
2023-06-18T09:25:59.130Z,100114.28
2023-06-18T09:28:27.672Z,100106.19
2023-06-18T09:31:00.194Z,100105.78
2023-06-18T09:33:36.982Z,100107.41
2023-06-18T09:36:08.613Z,100103.88
2023-06-18T09:38:42.800Z,100102.19
2023-06-18T09:41:13.768Z,100082.41
2023-06-18T09:43:42.319Z,100087.06
2023-06-18T09:46:09.467Z,100084.38
2023-06-18T09:48:39.515Z,100088.69
2023-06-18T09:51:06.408Z,100076.91
2023-06-18T09:53:35.114Z,100082.41
2023-06-18T09:56:16.410Z,100074.25
2023-06-18T09:58:50.398Z,100081.13
2023-06-18T10:01:18.694Z,100073.59
2023-06-18T10:03:46.182Z,100084.81
2023-06-18T10:06:19.097Z,100078.63
2023-06-18T10:08:51.639Z,100075.84
2023-06-18T10:11:19.960Z,100063.56
2023-06-18T10:13:59.213Z,100068.63
2023-06-18T10:16:27.865Z,100059.81
2023-06-18T10:19:09.808Z,100065.41
2023-06-18T10:21:40.065Z,100061.81
2023-06-18T10:24:13.574Z,100054.13
2023-06-18T10:26:42.295Z,100059.06
2023-06-18T10:29:11.310Z,100053.25
2023-06-18T10:31:38.690Z,100045.97
2023-06-18T10:34:05.944Z,100043.56
2023-06-18T10:36:33.869Z,100050.50
2023-06-18T10:39:02.250Z,100034.94
2023-06-18T10:41:28.749Z,100033.25
2023-06-18T10:43:56.319Z,100042.63
2023-06-18T10:46:23.779Z,100036.38
2023-06-18T10:49:14.859Z,100034.16
2023-06-18T10:51:43.105Z,100036.41
2023-06-18T10:54:24.190Z,100037.84
2023-06-18T10:56:53.840Z,100026.06
2023-06-18T10:59:36.882Z,100024.25
2023-06-18T11:02:03.939Z,100017.41
2023-06-18T11:04:32.501Z,100027.50
2023-06-18T11:07:24.502Z,100030.16
2023-06-18T11:09:59.586Z,100021.41
2023-06-18T11:12:30.802Z,100016.41
2023-06-18T11:15:07.841Z,100014.91
2023-06-18T11:17:34.807Z,100017.00
2023-06-18T11:20:02.826Z,100017.31
2023-06-18T11:22:29.540Z,100016.16
2023-06-18T11:25:01.289Z,100013.38
2023-06-18T11:27:28.703Z,100012.47
2023-06-18T11:29:59.693Z,100014.97
2023-06-18T11:32:27.107Z,100007.22
2023-06-18T11:34:57.549Z,100002.41
2023-06-18T11:37:29.071Z,99988.84
2023-06-18T11:39:57.292Z,100007.13
2023-06-18T11:42:27.117Z,100000.28
2023-06-18T11:44:59.048Z,99988.31
2023-06-18T11:47:25.716Z,99988.59
2023-06-18T11:49:52.884Z,99978.91
2023-06-18T11:52:22.617Z,99977.81
2023-06-18T11:54:49.911Z,99973.59
2023-06-18T11:57:19.890Z,99972.22
2023-06-18T11:59:50.968Z,99963.59
2023-06-18T12:02:19.355Z,99969.13
2023-06-18T12:04:46.614Z,99970.38
2023-06-18T12:07:18.049Z,99970.19
2023-06-18T12:09:45.751Z,99956.75
2023-06-18T12:12:15.388Z,99947.81
2023-06-18T12:14:47.369Z,99952.28
2023-06-18T12:17:30.752Z,99956.00
2023-06-18T12:20:05.385Z,99953.59
2023-06-18T12:22:32.380Z,99948.22
2023-06-18T12:24:59.104Z,99953.78
2023-06-18T12:27:26.532Z,99943.09
2023-06-18T12:29:58.598Z,99946.22
2023-06-18T12:32:25.217Z,99940.59
2023-06-18T12:34:51.943Z,99939.47
2023-06-18T12:37:18.426Z,99933.34
2023-06-18T12:40:20.948Z,99929.47
2023-06-18T12:42:48.254Z,99938.75
2023-06-18T12:45:16.742Z,99937.97
2023-06-18T12:47:47.435Z,99925.66
2023-06-18T12:50:26.060Z,99916.81
2023-06-18T12:52:53.878Z,99915.94
2023-06-18T12:55:22.929Z,99910.47
2023-06-18T12:57:50.371Z,99915.31
2023-06-18T13:00:18.802Z,99910.16
2023-06-18T13:02:47.191Z,99902.81
2023-06-18T13:05:14.367Z,99900.91
2023-06-18T13:07:49.990Z,99899.59
2023-06-18T13:10:16.480Z,99893.78
2023-06-18T13:12:43.282Z,99892.47
2023-06-18T13:15:10.675Z,99898.59
2023-06-18T13:17:37.993Z,99889.41
2023-06-18T13:20:06.254Z,99896.19
2023-06-18T13:22:32.776Z,99888.66
2023-06-18T13:25:00.006Z,99884.75
2023-06-18T13:27:27.661Z,99880.63
2023-06-18T13:29:54.403Z,99891.97
2023-06-18T13:32:21.409Z,99881.31
2023-06-18T13:34:49.892Z,99880.81
2023-06-18T13:37:17.197Z,99882.97
2023-06-18T13:39:47.209Z,99876.31
2023-06-18T13:42:15.451Z,99864.41
2023-06-18T13:44:42.799Z,99871.66
2023-06-18T13:47:09.936Z,99865.25
2023-06-18T13:49:36.511Z,99865.41
2023-06-18T13:52:05.268Z,99864.91
2023-06-18T13:54:32.115Z,99865.28
2023-06-18T13:56:58.817Z,99860.91
2023-06-18T13:59:25.640Z,99856.91
2023-06-18T14:01:52.074Z,99858.50
2023-06-18T14:04:19.590Z,99851.56
2023-06-18T14:06:46.549Z,99855.59
2023-06-18T14:09:16.864Z,99861.88
2023-06-18T14:11:45.480Z,99853.22
2023-06-18T14:14:12.078Z,99858.44
2023-06-18T14:16:38.935Z,99848.28
2023-06-18T14:19:05.549Z,99844.69
2023-06-18T14:21:32.179Z,99836.84
2023-06-18T14:24:03.988Z,99838.41
2023-06-18T14:26:31.407Z,99844.19
2023-06-18T14:28:58.102Z,99837.97
2023-06-18T14:31:24.744Z,99833.66
2023-06-18T14:34:07.897Z,99828.84
2023-06-18T14:36:38.560Z,99827.13
2023-06-18T14:39:06.904Z,99819.28
2023-06-18T14:41:33.465Z,99821.84
2023-06-18T14:44:00.404Z,99825.00
2023-06-18T14:46:27.246Z,99821.19
2023-06-18T14:48:53.769Z,99831.31
2023-06-18T14:51:20.729Z,99822.91
2023-06-18T14:53:51.960Z,99828.16
2023-06-18T14:56:19.658Z,99816.75
2023-06-18T14:58:46.445Z,99825.03
2023-06-18T15:01:13.017Z,99830.72
2023-06-18T15:03:39.807Z,99823.88
2023-06-18T15:06:08.976Z,99816.31
2023-06-18T15:08:35.737Z,99825.16
2023-06-18T15:11:02.400Z,99823.84
2023-06-18T15:13:31.793Z,99813.81
2023-06-18T15:16:01.287Z,99812.81
2023-06-18T15:18:27.909Z,99808.25
2023-06-18T15:20:54.759Z,99814.34
2023-06-18T15:23:24.613Z,99817.34
2023-06-18T15:25:51.078Z,99822.00
2023-06-18T15:28:17.891Z,99823.41
2023-06-18T15:30:44.410Z,99814.06
2023-06-18T15:33:11.121Z,99814.97
2023-06-18T15:35:37.676Z,99813.97
2023-06-18T15:38:09.941Z,99811.72
2023-06-18T15:40:37.577Z,99806.63
2023-06-18T15:43:04.155Z,99807.34
2023-06-18T15:45:30.827Z,99804.78
2023-06-18T15:47:57.468Z,99803.28
2023-06-18T15:50:23.995Z,99803.16
2023-06-18T15:52:51.718Z,99806.25
2023-06-18T15:55:19.991Z,99807.22
2023-06-18T15:57:48.932Z,99808.25
2023-06-18T16:00:15.621Z,99801.63
2023-06-18T16:02:42.098Z,99802.81
2023-06-18T16:05:10.943Z,99798.19
2023-06-18T16:07:37.802Z,99793.91
2023-06-18T16:10:04.371Z,99801.47
2023-06-18T16:12:31.051Z,99800.59
2023-06-18T16:14:57.502Z,99799.19
2023-06-18T16:17:23.974Z,99794.22
2023-06-18T16:19:50.598Z,99798.66
2023-06-18T16:22:17.149Z,99791.34
2023-06-18T16:24:43.799Z,99790.75
2023-06-18T16:27:10.742Z,99783.31
2023-06-18T16:29:37.273Z,99787.50
2023-06-18T16:32:11.560Z,99788.00
2023-06-18T16:34:38.757Z,99790.41
2023-06-18T16:37:05.691Z,99787.28
2023-06-18T16:39:33.724Z,99787.16
2023-06-18T16:42:00.255Z,99783.06
2023-06-18T16:44:26.667Z,99783.66
2023-06-18T16:46:53.436Z,99781.53
2023-06-18T16:49:20.002Z,99783.06
2023-06-18T16:51:46.697Z,99791.28
2023-06-18T16:54:13.167Z,99793.28
2023-06-18T16:56:40.018Z,99793.28
2023-06-18T16:59:07.008Z,99786.72
2023-06-18T17:01:33.608Z,99792.72
2023-06-18T17:04:02.523Z,99797.56
2023-06-18T17:06:29.103Z,99794.06
2023-06-18T17:08:55.579Z,99796.03
2023-06-18T17:11:22.627Z,99790.38
2023-06-18T17:13:49.135Z,99791.00
2023-06-18T17:16:15.676Z,99783.44
2023-06-18T17:18:42.191Z,99789.28
2023-06-18T17:21:08.765Z,99791.25
2023-06-18T17:23:35.411Z,99786.75
2023-06-18T17:26:02.041Z,99783.81
2023-06-18T17:28:28.429Z,99788.75
2023-06-18T17:30:54.820Z,99788.06
2023-06-18T17:33:22.747Z,99787.44
2023-06-18T17:35:49.213Z,99787.34
2023-06-18T17:38:16.009Z,99792.88
2023-06-18T17:40:42.519Z,99795.97
2023-06-18T17:43:09.920Z,99793.31
2023-06-18T17:45:36.710Z,99788.53
2023-06-18T17:48:03.483Z,99790.63
2023-06-18T17:50:30.124Z,99791.03
2023-06-18T17:52:56.709Z,99794.41
2023-06-18T17:55:23.330Z,99793.41
2023-06-18T17:57:50.458Z,99800.53
2023-06-18T18:00:17.103Z,99795.03
2023-06-18T18:02:43.797Z,99796.38
2023-06-18T18:05:11.016Z,99797.78
2023-06-18T18:07:37.453Z,99790.56
2023-06-18T18:10:04.434Z,99792.84
2023-06-18T18:12:31.859Z,99807.59
2023-06-18T18:14:58.252Z,99796.44
2023-06-18T18:17:24.905Z,99801.22
2023-06-18T18:19:51.400Z,99799.81
2023-06-18T18:22:19.209Z,99800.00
2023-06-18T18:24:46.234Z,99795.44
2023-06-18T18:27:14.025Z,99803.13
2023-06-18T18:29:40.534Z,99808.75
2023-06-18T18:32:07.420Z,99797.75
2023-06-18T18:34:33.818Z,99802.72
2023-06-18T18:37:00.548Z,99802.69
2023-06-18T18:39:26.931Z,99804.53
2023-06-18T18:41:53.449Z,99801.22
2023-06-18T18:44:19.876Z,99803.03
2023-06-18T18:46:46.403Z,99803.25
2023-06-18T18:49:13.038Z,99800.09
2023-06-18T18:51:39.628Z,99803.94
2023-06-18T18:54:07.702Z,99809.31
2023-06-18T18:56:35.660Z,99804.41
2023-06-18T18:59:03.796Z,99810.94
2023-06-18T19:01:30.276Z,99805.88
2023-06-18T19:03:56.759Z,99807.72
2023-06-18T19:06:23.239Z,99805.81
2023-06-18T19:08:50.730Z,99809.44
2023-06-18T19:11:17.113Z,99803.03
2023-06-18T19:13:43.664Z,99809.13
2023-06-18T19:16:10.186Z,99817.06
2023-06-18T19:18:37.952Z,99822.25
2023-06-18T19:21:04.540Z,99821.59
2023-06-18T19:23:31.057Z,99822.16
2023-06-18T19:25:58.518Z,99830.97
2023-06-18T19:28:26.015Z,99832.31
2023-06-18T19:30:52.629Z,99829.38
2023-06-18T19:33:19.220Z,99834.09
2023-06-18T19:35:45.715Z,99838.50
2023-06-18T19:38:12.446Z,99827.63
2023-06-18T19:40:39.253Z,99827.72
2023-06-18T19:43:05.738Z,99832.53
2023-06-18T19:45:33.209Z,99832.25
2023-06-18T19:47:59.949Z,99834.66
2023-06-18T19:50:26.551Z,99838.75
2023-06-18T19:52:53.151Z,99831.63
2023-06-18T19:55:21.087Z,99828.38
2023-06-18T19:57:47.848Z,99835.06
2023-06-18T20:00:14.403Z,99843.47
2023-06-18T20:02:43.165Z,99833.84
2023-06-18T20:05:09.737Z,99840.22
2023-06-18T20:07:36.221Z,99833.09
2023-06-18T20:10:06.358Z,99837.44
2023-06-18T20:12:33.676Z,99833.09
2023-06-18T20:15:00.476Z,99838.53
2023-06-18T20:17:27.178Z,99840.03
2023-06-18T20:19:53.648Z,99835.75
2023-06-18T20:22:20.441Z,99841.88
2023-06-18T20:24:46.998Z,99838.91
2023-06-18T20:27:13.583Z,99839.09
2023-06-18T20:29:40.233Z,99843.25
2023-06-18T20:32:07.321Z,99835.88
2023-06-18T20:34:35.684Z,99840.53
2023-06-18T20:37:02.090Z,99833.97
2023-06-18T20:39:28.561Z,99840.53
2023-06-18T20:41:55.028Z,99835.34
2023-06-18T20:44:21.510Z,99835.28
2023-06-18T20:46:48.086Z,99829.91
2023-06-18T20:49:15.536Z,99820.84
2023-06-18T20:51:42.484Z,99826.13
2023-06-18T20:54:08.910Z,99822.78
2023-06-18T20:56:35.418Z,99828.84
2023-06-18T20:59:01.872Z,99826.97
2023-06-18T21:01:31.897Z,99825.94
2023-06-18T21:03:58.807Z,99824.78
2023-06-18T21:06:25.207Z,99831.00
2023-06-18T21:08:52.147Z,99826.13
2023-06-18T21:11:19.085Z,99815.78
2023-06-18T21:13:47.033Z,99833.28
2023-06-18T21:16:14.149Z,99823.88
2023-06-18T21:18:40.763Z,99822.47
2023-06-18T21:21:07.451Z,99827.25
2023-06-18T21:23:33.958Z,99828.50
2023-06-18T21:26:00.656Z,99830.94
2023-06-18T21:28:27.272Z,99842.56
2023-06-18T21:30:54.244Z,99837.09
2023-06-18T21:33:20.705Z,99842.94
2023-06-18T21:35:48.697Z,99847.63
2023-06-18T21:38:15.534Z,99842.25
2023-06-18T21:40:42.071Z,99847.78
2023-06-18T21:43:08.537Z,99846.97
2023-06-18T21:45:35.245Z,99853.16
2023-06-18T21:48:01.834Z,99853.84
2023-06-18T21:50:28.480Z,99846.50
2023-06-18T21:52:54.961Z,99852.03
2023-06-18T21:55:21.794Z,99850.06
2023-06-18T21:57:48.490Z,99845.19
2023-06-18T22:00:15.188Z,99846.22
2023-06-18T22:02:41.907Z,99840.03
2023-06-18T22:05:08.390Z,99846.03
2023-06-18T22:07:35.058Z,99842.38
2023-06-18T22:10:02.070Z,99844.19
2023-06-18T22:12:28.712Z,99839.84
2023-06-18T22:14:55.463Z,99844.53
2023-06-18T22:17:21.988Z,99841.03
2023-06-18T22:19:48.461Z,99840.69
2023-06-18T22:22:15.087Z,99840.84
2023-06-18T22:24:41.707Z,99844.03
2023-06-18T22:27:09.129Z,99849.72
2023-06-18T22:29:35.739Z,99854.88
2023-06-18T22:32:02.349Z,99843.88
2023-06-18T22:34:41.142Z,99842.53
2023-06-18T22:37:08.545Z,99847.84
2023-06-18T22:39:34.996Z,99845.19
2023-06-18T22:42:01.520Z,99848.50
2023-06-18T22:44:27.933Z,99848.03
2023-06-18T22:46:54.495Z,99830.53
2023-06-18T22:49:20.991Z,99828.00
2023-06-18T22:51:54.144Z,99818.66
2023-06-18T22:54:20.660Z,99819.00
2023-06-18T22:56:47.138Z,99827.16
2023-06-18T22:59:13.816Z,99829.34
2023-06-18T23:01:41.279Z,99822.47
2023-06-18T23:04:07.831Z,99825.84
2023-06-18T23:06:34.322Z,99833.69
2023-06-18T23:09:00.749Z,99829.94
2023-06-18T23:11:27.429Z,99824.97
2023-06-18T23:13:53.987Z,99820.66
2023-06-18T23:16:20.390Z,99830.31
2023-06-18T23:18:47.151Z,99829.13
2023-06-18T23:21:14.226Z,99824.09
2023-06-18T23:23:40.854Z,99835.44
2023-06-18T23:26:07.450Z,99826.91
2023-06-18T23:28:34.046Z,99829.59
2023-06-18T23:31:05.061Z,99831.06
2023-06-18T23:33:32.045Z,99836.56
2023-06-18T23:35:58.638Z,99845.50
2023-06-18T23:38:25.259Z,99846.69
2023-06-18T23:40:52.462Z,99843.88
2023-06-18T23:43:19.747Z,99846.72
2023-06-18T23:45:46.406Z,99841.53
2023-06-18T23:48:12.922Z,99844.19
2023-06-18T23:50:39.505Z,99847.22
2023-06-18T23:53:05.946Z,99848.69
2023-06-18T23:55:32.973Z,99842.03
2023-06-18T23:57:59.434Z,99846.22
